Time;durP1;ratioP1;P1;durP2;ratioP2;P2;SDS_P1;SDS_P2;PMS_P1;PMS_P2;Temp;Humidity;BMP_temperature;BMP_pressure;BME280_temperature;BME280_humidity;BME280_pressure;Samples;Min_cycle;Max_cycle;Signal;HPM_P1;HPM_P2
2023/09/10 00:01:02;;;;;;;0.00;0.00;;;;;;;;;;5076534;28;20085;-83
2023/09/10 00:03:28;;;;;;;0.00;0.00;;;;;;;;;;5076374;28;20040;-84
2023/09/10 00:05:54;;;;;;;0.00;0.00;;;;;;;;;;5059617;28;20029;-85
2023/09/10 00:08:19;;;;;;;0.00;0.00;;;;;;;;;;5077282;28;20081;-83
2023/09/10 00:10:45;;;;;;;0.25;0.00;;;;;;;;;;5075711;28;20033;-85
2023/09/10 00:13:10;;;;;;;0.00;0.00;;;;;;;;;;5075732;28;20028;-84
2023/09/10 00:15:36;;;;;;;0.00;0.00;;;;;;;;;;5075893;28;20104;-85
2023/09/10 00:18:01;;;;;;;0.00;0.00;;;;;;;;;;5088544;28;20139;-84
2023/09/10 00:20:27;;;;;;;0.00;0.00;;;;;;;;;;5078355;28;20432;-84
2023/09/10 00:22:52;;;;;;;0.00;0.00;;;;;;;;;;5077441;28;20020;-83
2023/09/10 00:25:18;;;;;;;0.00;0.00;;;;;;;;;;5076841;28;20111;-83
2023/09/10 00:27:43;;;;;;;0.00;0.00;;;;;;;;;;5077171;28;20033;-84
2023/09/10 00:30:10;;;;;;;0.00;0.00;;;;;;;;;;5075981;28;20417;-84
2023/09/10 00:32:35;;;;;;;0.00;0.00;;;;;;;;;;5076516;28;20044;-83
2023/09/10 00:35:00;;;;;;;0.00;0.00;;;;;;;;;;5075535;28;20359;-83
2023/09/10 00:37:26;;;;;;;0.00;0.00;;;;;;;;;;5076825;28;20036;-83
2023/09/10 00:39:51;;;;;;;0.00;0.00;;;;;;;;;;5087299;28;20021;-85
2023/09/10 00:42:17;;;;;;;0.00;0.00;;;;;;;;;;5080906;28;20071;-85
2023/09/10 00:44:43;;;;;;;0.00;0.00;;;;;;;;;;5076711;28;20378;-83
2023/09/10 00:47:08;;;;;;;0.00;0.00;;;;;;;;;;5076793;28;20029;-83
2023/09/10 00:49:34;;;;;;;0.00;0.00;;;;;;;;;;5076709;28;20035;-83
2023/09/10 00:51:59;;;;;;;0.00;0.00;;;;;;;;;;5075066;28;20040;-83
2023/09/10 00:54:25;;;;;;;0.00;0.00;;;;;;;;;;5075103;28;20110;-83
2023/09/10 00:56:51;;;;;;;0.00;0.00;;;;;;;;;;5075166;28;20040;-84
2023/09/10 00:59:16;;;;;;;0.00;0.00;;;;;;;;;;5075032;28;20123;-82
2023/09/10 01:01:42;;;;;;;0.00;0.00;;;;;;;;;;5079461;28;20047;-83
2023/09/10 01:04:07;;;;;;;0.00;0.00;;;;;;;;;;5084401;28;20040;-83
2023/09/10 01:06:32;;;;;;;0.00;0.00;;;;;;;;;;5075474;28;20028;-84
2023/09/10 01:08:58;;;;;;;0.00;0.00;;;;;;;;;;5075147;28;20037;-84
2023/09/10 01:11:32;;;;;;;0.00;0.00;;;;;;;;;;5074912;28;20059;-83
2023/09/10 01:14:04;;;;;;;0.00;0.00;;;;;;;;;;5075986;28;20033;-83
2023/09/10 01:16:43;;;;;;;0.00;0.00;;;;;;;;;;5074989;28;20668;-82
2023/09/10 01:19:53;;;;;;;0.00;0.00;;;;;;;;;;5074933;28;20480;-82
2023/09/10 01:22:26;;;;;;;0.00;0.00;;;;;;;;;;5059761;28;20043;-84
2023/09/10 01:24:51;;;;;;;0.00;0.00;;;;;;;;;;5083902;28;20037;-84
2023/09/10 01:27:17;;;;;;;0.10;0.00;;;;;;;;;;5081284;28;20025;-84
2023/09/10 01:29:43;;;;;;;0.00;0.00;;;;;;;;;;5075651;28;20048;-83
2023/09/10 01:32:23;;;;;;;0.00;0.00;;;;;;;;;;5041148;28;20051;-83
2023/09/10 01:34:51;;;;;;;0.00;0.00;;;;;;;;;;5057885;28;20079;-83
2023/09/10 01:37:32;;;;;;;0.00;0.00;;;;;;;;;;5074218;28;20033;-83
2023/09/10 01:39:58;;;;;;;0.00;0.00;;;;;;;;;;5074499;28;20461;-82
2023/09/10 01:42:23;;;;;;;0.00;0.00;;;;;;;;;;5075078;28;20036;-82
2023/09/10 01:44:49;;;;;;;0.00;0.00;;;;;;;;;;5041890;28;20036;-82
2023/09/10 01:47:14;;;;;;;0.00;0.00;;;;;;;;;;5063420;28;20024;-82
2023/09/10 01:49:40;;;;;;;0.10;0.00;;;;;;;;;;5081304;28;20031;-83
2023/09/10 01:52:05;;;;;;;0.00;0.00;;;;;;;;;;5078653;28;20072;-83
2023/09/10 01:54:30;;;;;;;0.00;0.00;;;;;;;;;;5083900;28;20031;-83
2023/09/10 01:56:56;;;;;;;0.00;0.00;;;;;;;;;;5094313;28;20020;-82
2023/09/10 01:59:21;;;;;;;0.00;0.00;;;;;;;;;;5093487;28;20058;-81
2023/09/10 02:01:47;;;;;;;0.00;0.00;;;;;;;;;;5094343;28;20050;-83
2023/09/10 02:04:12;;;;;;;0.00;0.00;;;;;;;;;;5090669;28;20025;-81
2023/09/10 02:06:38;;;;;;;0.00;0.00;;;;;;;;;;5081616;28;20033;-82
2023/09/10 02:09:03;;;;;;;0.00;0.00;;;;;;;;;;5089265;28;20035;-83
2023/09/10 02:11:28;;;;;;;0.00;0.00;;;;;;;;;;5094824;28;20107;-84
2023/09/10 02:13:54;;;;;;;0.00;0.00;;;;;;;;;;5096243;28;20016;-81
2023/09/10 02:16:20;;;;;;;0.00;0.00;;;;;;;;;;5084295;28;20082;-83
2023/09/10 02:18:45;;;;;;;0.00;0.00;;;;;;;;;;5074928;28;20037;-84
2023/09/10 02:21:11;;;;;;;0.00;0.00;;;;;;;;;;5074993;28;20037;-84
2023/09/10 02:23:37;;;;;;;0.00;0.00;;;;;;;;;;5074766;28;20036;-83
2023/09/10 02:26:03;;;;;;;0.00;0.00;;;;;;;;;;5056894;28;20351;-83
2023/09/10 02:28:28;;;;;;;0.00;0.00;;;;;;;;;;5074950;28;20051;-83
2023/09/10 02:30:53;;;;;;;0.00;0.00;;;;;;;;;;5074812;28;20475;-83
2023/09/10 02:33:19;;;;;;;0.00;0.00;;;;;;;;;;5090271;28;20039;-83
2023/09/10 02:35:44;;;;;;;0.00;0.00;;;;;;;;;;5075564;28;20111;-83
2023/09/10 02:38:10;;;;;;;0.00;0.00;;;;;;;;;;5075560;28;20067;-84
2023/09/10 02:40:35;;;;;;;0.00;0.00;;;;;;;;;;5073694;28;20067;-84
2023/09/10 02:43:01;;;;;;;0.00;0.00;;;;;;;;;;5075562;28;20032;-84
2023/09/10 02:45:26;;;;;;;0.00;0.00;;;;;;;;;;5074737;28;20553;-84
2023/09/10 02:47:52;;;;;;;0.00;0.00;;;;;;;;;;5075070;28;20398;-83
2023/09/10 02:50:17;;;;;;;0.00;0.00;;;;;;;;;;5074524;28;20459;-83
2023/09/10 02:52:42;;;;;;;0.00;0.00;;;;;;;;;;5074723;28;20102;-83
2023/09/10 02:55:08;;;;;;;0.00;0.00;;;;;;;;;;5081781;28;20024;-83
2023/09/10 02:57:34;;;;;;;0.00;0.00;;;;;;;;;;5082192;28;20519;-83
2023/09/10 02:59:59;;;;;;;0.00;0.00;;;;;;;;;;5074265;28;20035;-84
2023/09/10 03:02:25;;;;;;;0.00;0.00;;;;;;;;;;5074170;28;20029;-83
2023/09/10 03:04:50;;;;;;;0.00;0.00;;;;;;;;;;5074121;28;20451;-83
2023/09/10 03:07:16;;;;;;;0.00;0.00;;;;;;;;;;5075219;28;20446;-83
2023/09/10 03:09:41;;;;;;;0.00;0.00;;;;;;;;;;5075060;28;20028;-84
2023/09/10 03:12:26;;;;;;;0.00;0.00;;;;;;;;;;5072929;28;20040;-84
2023/09/10 03:14:52;;;;;;;0.00;0.00;;;;;;;;;;5073147;28;20087;-83
2023/09/10 03:17:17;;;;;;;0.00;0.00;;;;;;;;;;5079184;28;20024;-83
2023/09/10 03:19:43;;;;;;;0.00;0.00;;;;;;;;;;5085031;28;20052;-84
2023/09/10 03:22:09;;;;;;;0.00;0.00;;;;;;;;;;5074458;28;20119;-84
2023/09/10 03:24:35;;;;;;;0.00;0.00;;;;;;;;;;5073008;28;20064;-83
2023/09/10 03:27:01;;;;;;;0.00;0.00;;;;;;;;;;5073224;28;20072;-84
2023/09/10 03:29:26;;;;;;;0.00;0.00;;;;;;;;;;5073910;28;20524;-84
2023/09/10 03:31:52;;;;;;;0.00;0.00;;;;;;;;;;5073999;28;20028;-83
2023/09/10 03:34:18;;;;;;;0.00;0.00;;;;;;;;;;5074052;28;20105;-84
2023/09/10 03:36:43;;;;;;;0.00;0.00;;;;;;;;;;5074092;28;20024;-84
2023/09/10 03:39:09;;;;;;;0.00;0.00;;;;;;;;;;5073658;28;20059;-84
2023/09/10 03:41:34;;;;;;;0.00;0.00;;;;;;;;;;5087426;28;20028;-84
2023/09/10 03:44:00;;;;;;;0.00;0.00;;;;;;;;;;5056559;28;20027;-84
2023/09/10 03:46:25;;;;;;;0.00;0.00;;;;;;;;;;5073083;28;20050;-84
2023/09/10 03:48:51;;;;;;;0.00;0.00;;;;;;;;;;5072686;28;20040;-84
2023/09/10 03:51:16;;;;;;;0.00;0.00;;;;;;;;;;5072678;28;20052;-84
2023/09/10 03:53:42;;;;;;;0.00;0.00;;;;;;;;;;5072613;28;20039;-83
2023/09/10 03:56:07;;;;;;;0.00;0.00;;;;;;;;;;5073967;28;20017;-84
2023/09/10 03:58:33;;;;;;;0.00;0.00;;;;;;;;;;5073959;28;20351;-84
2023/09/10 04:00:58;;;;;;;0.00;0.00;;;;;;;;;;5073774;28;20472;-83
2023/09/10 04:03:25;;;;;;;0.00;0.00;;;;;;;;;;5086011;28;20051;-83
2023/09/10 04:05:52;;;;;;;0.00;0.00;;;;;;;;;;5076188;28;20028;-83
2023/09/10 04:08:17;;;;;;;0.00;0.00;;;;;;;;;;5076413;28;20038;-84
2023/09/10 04:10:43;;;;;;;0.00;0.00;;;;;;;;;;5077293;28;20033;-84
2023/09/10 04:13:08;;;;;;;0.00;0.00;;;;;;;;;;5077090;28;20462;-83
2023/09/10 04:15:33;;;;;;;0.00;0.00;;;;;;;;;;5077514;28;20508;-83
2023/09/10 04:17:59;;;;;;;0.00;0.00;;;;;;;;;;5078014;28;20034;-84
2023/09/10 04:20:24;;;;;;;0.00;0.00;;;;;;;;;;5082145;28;20039;-83
2023/09/10 04:22:50;;;;;;;0.00;0.00;;;;;;;;;;5079449;28;20024;-83
2023/09/10 04:25:15;;;;;;;0.00;0.00;;;;;;;;;;5082747;28;20024;-83
2023/09/10 04:27:40;;;;;;;0.00;0.00;;;;;;;;;;5084364;28;20029;-84
2023/09/10 04:30:07;;;;;;;0.00;0.00;;;;;;;;;;5077231;28;20036;-84
2023/09/10 04:32:32;;;;;;;0.10;0.00;;;;;;;;;;5076649;28;20086;-84
2023/09/10 04:34:58;;;;;;;0.00;0.00;;;;;;;;;;5076752;28;20029;-83
2023/09/10 04:37:24;;;;;;;0.00;0.00;;;;;;;;;;5076587;28;20086;-82
2023/09/10 04:39:51;;;;;;;0.00;0.00;;;;;;;;;;5076930;28;20031;-84
2023/09/10 04:42:16;;;;;;;0.00;0.00;;;;;;;;;;5075647;28;20036;-82
2023/09/10 04:44:43;;;;;;;0.00;0.00;;;;;;;;;;5077982;28;20031;-83
2023/09/10 04:47:09;;;;;;;0.00;0.00;;;;;;;;;;5079420;28;20092;-82
2023/09/10 04:49:34;;;;;;;0.00;0.00;;;;;;;;;;5096734;28;20021;-82
2023/09/10 04:52:03;;;;;;;0.00;0.00;;;;;;;;;;5079257;28;20040;-82
2023/09/10 04:54:28;;;;;;;0.00;0.00;;;;;;;;;;5077198;28;20358;-82
2023/09/10 04:56:54;;;;;;;0.00;0.00;;;;;;;;;;5076670;28;20035;-83
2023/09/10 04:59:20;;;;;;;0.00;0.00;;;;;;;;;;5078395;28;20032;-83
2023/09/10 05:01:45;;;;;;;0.00;0.00;;;;;;;;;;5077941;28;20040;-84
2023/09/10 05:04:11;;;;;;;0.00;0.00;;;;;;;;;;5078434;28;20040;-83
2023/09/10 05:06:36;;;;;;;0.00;0.00;;;;;;;;;;5079178;28;20056;-83
2023/09/10 05:09:02;;;;;;;0.00;0.00;;;;;;;;;;5080496;28;20389;-83
2023/09/10 05:11:27;;;;;;;0.00;0.00;;;;;;;;;;5090026;28;20055;-84
2023/09/10 05:13:52;;;;;;;0.00;0.00;;;;;;;;;;5077402;28;20036;-84
2023/09/10 05:16:18;;;;;;;0.00;0.00;;;;;;;;;;5076206;28;20036;-83
2023/09/10 05:18:44;;;;;;;0.00;0.00;;;;;;;;;;5075921;28;20035;-82
2023/09/10 05:21:09;;;;;;;0.00;0.00;;;;;;;;;;5074436;28;20039;-83
2023/09/10 05:23:34;;;;;;;0.00;0.00;;;;;;;;;;5075872;28;20086;-83
2023/09/10 05:26:02;;;;;;;0.00;0.00;;;;;;;;;;5075807;28;20115;-83
2023/09/10 05:28:27;;;;;;;0.00;0.00;;;;;;;;;;5058204;28;20040;-83
2023/09/10 05:30:53;;;;;;;0.15;0.00;;;;;;;;;;5075958;28;20032;-83
2023/09/10 05:33:18;;;;;;;0.00;0.00;;;;;;;;;;5081907;28;20029;-83
2023/09/10 05:35:53;;;;;;;0.00;0.00;;;;;;;;;;5087041;28;20024;-83
2023/09/10 05:38:19;;;;;;;0.00;0.00;;;;;;;;;;5074779;28;20366;-84
2023/09/10 05:40:44;;;;;;;0.00;0.00;;;;;;;;;;5076025;28;20041;-83
2023/09/10 05:43:09;;;;;;;0.05;0.00;;;;;;;;;;5075781;28;20119;-83
2023/09/10 05:45:35;;;;;;;0.00;0.00;;;;;;;;;;5076009;28;20024;-84
2023/09/10 05:48:01;;;;;;;0.00;0.00;;;;;;;;;;5075774;28;20036;-84
2023/09/10 05:50:26;;;;;;;0.00;0.00;;;;;;;;;;5057888;28;20028;-84
2023/09/10 05:52:55;;;;;;;0.00;0.00;;;;;;;;;;5074501;28;20067;-84
2023/09/10 05:55:21;;;;;;;0.00;0.00;;;;;;;;;;5079652;28;20112;-84
2023/09/10 05:57:47;;;;;;;0.00;0.00;;;;;;;;;;5082644;28;20079;-85
2023/09/10 06:00:13;;;;;;;0.00;0.00;;;;;;;;;;5076741;28;20370;-81
2023/09/10 06:02:38;;;;;;;0.20;0.00;;;;;;;;;;5058704;28;20040;-84
2023/09/10 06:05:05;;;;;;;0.00;0.00;;;;;;;;;;5075653;28;20112;-84
2023/09/10 06:07:30;;;;;;;0.00;0.00;;;;;;;;;;5075808;28;20028;-84
2023/09/10 06:09:56;;;;;;;0.00;0.00;;;;;;;;;;5075515;28;20036;-75
2023/09/10 06:12:21;;;;;;;0.00;0.00;;;;;;;;;;5080911;28;20058;-76
2023/09/10 06:14:47;;;;;;;0.00;0.00;;;;;;;;;;5080409;28;20039;-80
2023/09/10 06:17:13;;;;;;;0.00;0.00;;;;;;;;;;5078225;28;20028;-82
2023/09/10 06:19:39;;;;;;;0.00;0.00;;;;;;;;;;5080604;28;20039;-76
2023/09/10 06:22:05;;;;;;;0.00;0.00;;;;;;;;;;5076419;28;20075;-78
2023/09/10 06:24:30;;;;;;;0.00;0.00;;;;;;;;;;5078043;28;20021;-76
2023/09/10 06:26:57;;;;;;;0.00;0.00;;;;;;;;;;5076304;28;20481;-83
2023/09/10 06:29:22;;;;;;;0.00;0.00;;;;;;;;;;5075159;28;20463;-77
2023/09/10 06:31:48;;;;;;;0.00;0.00;;;;;;;;;;5078537;28;20043;-76
2023/09/10 06:34:13;;;;;;;0.00;0.00;;;;;;;;;;5077732;28;20082;-77
2023/09/10 06:36:39;;;;;;;0.00;0.00;;;;;;;;;;5075717;28;20028;-81
2023/09/10 06:39:05;;;;;;;0.00;0.00;;;;;;;;;;5074406;28;20035;-79
2023/09/10 06:41:31;;;;;;;0.03;0.03;;;;;;;;;;5076160;28;20021;-79
2023/09/10 06:43:56;;;;;;;0.00;0.00;;;;;;;;;;5074518;28;20028;-80
2023/09/10 06:46:22;;;;;;;0.00;0.00;;;;;;;;;;5075646;28;20024;-80
2023/09/10 06:48:47;;;;;;;0.00;0.00;;;;;;;;;;5074177;28;20021;-80
2023/09/10 06:51:13;;;;;;;0.00;0.00;;;;;;;;;;5074541;28;20115;-80
2023/09/10 06:53:38;;;;;;;0.00;0.00;;;;;;;;;;5074940;28;20021;-81
2023/09/10 06:56:04;;;;;;;0.08;0.08;;;;;;;;;;5075140;28;20012;-80
2023/09/10 06:58:29;;;;;;;0.00;0.00;;;;;;;;;;5074956;28;20021;-80
2023/09/10 07:00:54;;;;;;;0.00;0.00;;;;;;;;;;5075186;28;20086;-80
2023/09/10 07:03:20;;;;;;;0.00;0.00;;;;;;;;;;5077633;28;20052;-80
2023/09/10 07:05:45;;;;;;;0.00;0.00;;;;;;;;;;5075018;28;20077;-81
2023/09/10 07:08:11;;;;;;;0.00;0.00;;;;;;;;;;5075028;28;20024;-81
2023/09/10 07:10:37;;;;;;;0.00;0.00;;;;;;;;;;5074154;28;20523;-81
2023/09/10 07:13:07;;;;;;;0.00;0.00;;;;;;;;;;5073346;28;20032;-80
2023/09/10 07:15:33;;;;;;;0.00;0.00;;;;;;;;;;5072847;28;20386;-81
2023/09/10 07:17:59;;;;;;;0.00;0.00;;;;;;;;;;5074153;28;20426;-80
2023/09/10 07:20:24;;;;;;;0.00;0.00;;;;;;;;;;5074147;28;20035;-80
2023/09/10 07:22:50;;;;;;;0.00;0.00;;;;;;;;;;5073970;28;20035;-80
2023/09/10 07:25:15;;;;;;;0.00;0.00;;;;;;;;;;5073918;28;20027;-80
2023/09/10 07:27:40;;;;;;;0.00;0.00;;;;;;;;;;5075713;28;20802;-80
2023/09/10 07:30:08;;;;;;;0.00;0.00;;;;;;;;;;5077466;28;20040;-79
2023/09/10 07:32:33;;;;;;;0.00;0.00;;;;;;;;;;5074951;28;20441;-80
2023/09/10 07:35:01;;;;;;;0.00;0.00;;;;;;;;;;5061127;28;20064;-80
2023/09/10 07:37:26;;;;;;;0.00;0.00;;;;;;;;;;5076482;28;20032;-80
2023/09/10 07:39:52;;;;;;;0.00;0.00;;;;;;;;;;5076725;28;20090;-81
2023/09/10 07:42:17;;;;;;;0.10;0.10;;;;;;;;;;5078765;28;20115;-79
2023/09/10 07:44:43;;;;;;;0.00;0.00;;;;;;;;;;5076745;28;20074;-81
2023/09/10 07:47:08;;;;;;;0.00;0.00;;;;;;;;;;5076745;28;20123;-79
2023/09/10 07:49:34;;;;;;;0.00;0.00;;;;;;;;;;5080627;28;20028;-80
2023/09/10 07:52:03;;;;;;;0.00;0.00;;;;;;;;;;5078086;28;20040;-81
2023/09/10 07:54:28;;;;;;;0.00;0.00;;;;;;;;;;5078085;28;20087;-80
2023/09/10 07:56:54;;;;;;;0.00;0.00;;;;;;;;;;5078594;28;20466;-81
2023/09/10 07:59:19;;;;;;;0.00;0.00;;;;;;;;;;5078551;28;20028;-80
2023/09/10 08:01:45;;;;;;;0.00;0.00;;;;;;;;;;5077772;28;20044;-80
2023/09/10 08:04:11;;;;;;;0.00;0.00;;;;;;;;;;5078080;28;20465;-80
2023/09/10 08:06:37;;;;;;;0.03;0.03;;;;;;;;;;5077784;28;20454;-79
2023/09/10 08:09:02;;;;;;;0.00;0.00;;;;;;;;;;5060088;28;20039;-81
2023/09/10 08:11:28;;;;;;;0.00;0.00;;;;;;;;;;5077810;28;20404;-80
2023/09/10 08:13:53;;;;;;;0.00;0.00;;;;;;;;;;5076318;28;20036;-81
2023/09/10 08:16:19;;;;;;;0.00;0.00;;;;;;;;;;5059361;28;20462;-81
2023/09/10 08:18:45;;;;;;;0.00;0.00;;;;;;;;;;5077801;28;20078;-80
2023/09/10 08:21:11;;;;;;;0.00;0.00;;;;;;;;;;5078323;28;20025;-81
2023/09/10 08:23:36;;;;;;;0.00;0.00;;;;;;;;;;5076887;28;20947;-81
2023/09/10 08:26:02;;;;;;;0.00;0.00;;;;;;;;;;5076607;28;20032;-80
2023/09/10 08:28:28;;;;;;;0.00;0.00;;;;;;;;;;5077462;28;20060;-81
2023/09/10 08:30:54;;;;;;;0.00;0.00;;;;;;;;;;5077712;28;20079;-81
2023/09/10 08:33:21;;;;;;;0.00;0.00;;;;;;;;;;5062446;28;20024;-79
2023/09/10 08:35:48;;;;;;;0.00;0.00;;;;;;;;;;5080010;28;20119;-80
2023/09/10 08:38:13;;;;;;;0.00;0.00;;;;;;;;;;5077621;28;20025;-80
2023/09/10 08:40:47;;;;;;;0.00;0.00;;;;;;;;;;5077650;28;20027;-80
2023/09/10 08:43:14;;;;;;;0.00;0.00;;;;;;;;;;5076296;28;20426;-80
2023/09/10 08:45:40;;;;;;;0.00;0.00;;;;;;;;;;5059225;28;20031;-79
2023/09/10 08:48:05;;;;;;;0.00;0.00;;;;;;;;;;5075057;28;20394;-79
2023/09/10 08:50:31;;;;;;;0.00;0.00;;;;;;;;;;5075364;28;20047;-80
2023/09/10 08:52:57;;;;;;;0.00;0.00;;;;;;;;;;5075863;28;20028;-80
2023/09/10 08:55:22;;;;;;;0.00;0.00;;;;;;;;;;5076144;28;20501;-80
2023/09/10 08:57:48;;;;;;;0.00;0.00;;;;;;;;;;5074704;28;20094;-80
2023/09/10 09:00:13;;;;;;;0.00;0.00;;;;;;;;;;5075573;28;20095;-80
2023/09/10 09:02:39;;;;;;;0.00;0.00;;;;;;;;;;5076303;28;20449;-80
2023/09/10 09:05:06;;;;;;;0.00;0.00;;;;;;;;;;5076107;28;20066;-80
2023/09/10 09:07:32;;;;;;;0.00;0.00;;;;;;;;;;5076235;28;20728;-81
2023/09/10 09:09:58;;;;;;;0.00;0.00;;;;;;;;;;5074634;28;20037;-81
2023/09/10 09:12:23;;;;;;;0.00;0.00;;;;;;;;;;5057606;28;20047;-81
2023/09/10 09:14:49;;;;;;;0.00;0.00;;;;;;;;;;5074576;28;20497;-81
2023/09/10 09:17:14;;;;;;;0.00;0.00;;;;;;;;;;5074721;28;20082;-80
2023/09/10 09:19:42;;;;;;;0.00;0.00;;;;;;;;;;5083324;28;20145;-80
2023/09/10 09:22:08;;;;;;;0.00;0.00;;;;;;;;;;5058079;28;20056;-80
2023/09/10 09:24:33;;;;;;;0.00;0.00;;;;;;;;;;5075621;28;20024;-79
2023/09/10 09:27:00;;;;;;;0.00;0.00;;;;;;;;;;5074555;28;20047;-80
2023/09/10 09:29:25;;;;;;;0.00;0.00;;;;;;;;;;5074472;28;20053;-80
2023/09/10 09:31:51;;;;;;;0.00;0.00;;;;;;;;;;5057676;28;20033;-80
2023/09/10 09:34:17;;;;;;;0.00;0.00;;;;;;;;;;5075531;28;20082;-81
2023/09/10 09:36:42;;;;;;;0.00;0.00;;;;;;;;;;5075165;28;20024;-80
2023/09/10 09:39:08;;;;;;;0.10;0.00;;;;;;;;;;5075641;28;20127;-80
2023/09/10 09:41:34;;;;;;;0.00;0.00;;;;;;;;;;5075311;28;20033;-80
2023/09/10 09:43:59;;;;;;;0.10;0.00;;;;;;;;;;5076086;28;20028;-80
2023/09/10 09:46:30;;;;;;;0.00;0.00;;;;;;;;;;5075550;28;20043;-80
2023/09/10 09:48:56;;;;;;;0.00;0.00;;;;;;;;;;5075414;28;20052;-80
2023/09/10 09:51:21;;;;;;;0.00;0.00;;;;;;;;;;5075120;28;20426;-80
2023/09/10 09:53:47;;;;;;;0.20;0.00;;;;;;;;;;5075311;28;20505;-80
2023/09/10 09:56:12;;;;;;;0.00;0.00;;;;;;;;;;5073825;28;20401;-81
2023/09/10 09:58:38;;;;;;;0.00;0.00;;;;;;;;;;5057153;28;20442;-81
2023/09/10 10:01:03;;;;;;;0.00;0.00;;;;;;;;;;5075066;28;20158;-81
2023/09/10 10:03:29;;;;;;;0.00;0.00;;;;;;;;;;5075600;28;20062;-80
2023/09/10 10:05:54;;;;;;;0.00;0.00;;;;;;;;;;5086441;28;20121;-80
2023/09/10 10:08:24;;;;;;;0.00;0.00;;;;;;;;;;5074946;28;20363;-80
2023/09/10 10:10:50;;;;;;;0.00;0.00;;;;;;;;;;5057014;28;20076;-80
2023/09/10 10:13:21;;;;;;;0.00;0.00;;;;;;;;;;5073462;28;20113;-80
2023/09/10 10:15:47;;;;;;;0.00;0.00;;;;;;;;;;5075081;28;20021;-80
2023/09/10 10:18:17;;;;;;;0.00;0.00;;;;;;;;;;5074791;28;20024;-79
2023/09/10 10:20:46;;;;;;;0.00;0.00;;;;;;;;;;5075119;28;20035;-79
2023/09/10 10:23:12;;;;;;;0.00;0.00;;;;;;;;;;5075973;28;20036;-81
2023/09/10 10:25:38;;;;;;;0.00;0.00;;;;;;;;;;5075786;28;20029;-79
2023/09/10 10:28:07;;;;;;;0.00;0.00;;;;;;;;;;5073785;28;20056;-80
2023/09/10 10:30:33;;;;;;;0.00;0.00;;;;;;;;;;5075267;28;20082;-79
2023/09/10 10:33:01;;;;;;;0.00;0.00;;;;;;;;;;5075772;28;20049;-80
2023/09/10 10:35:26;;;;;;;0.00;0.00;;;;;;;;;;5078092;28;20040;-80
2023/09/10 10:37:55;;;;;;;0.00;0.00;;;;;;;;;;5078345;28;20028;-79
2023/09/10 10:40:25;;;;;;;;;;;;;;;;;;5077939;28;20035;-81
2023/09/10 10:43:08;;;;;;;0.00;0.00;;;;;;;;;;5076219;28;19970;-80
2023/09/10 10:45:33;;;;;;;0.00;0.00;;;;;;;;;;5077280;28;20443;-79
2023/09/10 10:48:00;;;;;;;0.00;0.00;;;;;;;;;;5074863;28;20036;-80
2023/09/10 10:50:27;;;;;;;0.00;0.00;;;;;;;;;;5075256;28;20025;-79
2023/09/10 10:52:58;;;;;;;0.00;0.00;;;;;;;;;;5074565;28;20036;-80
2023/09/10 10:55:24;;;;;;;0.00;0.00;;;;;;;;;;5072934;28;20021;-80
2023/09/10 10:57:49;;;;;;;0.00;0.00;;;;;;;;;;5073600;28;20025;-80
2023/09/10 11:00:15;;;;;;;0.00;0.00;;;;;;;;;;5074029;28;20062;-79
2023/09/10 11:02:40;;;;;;;0.00;0.00;;;;;;;;;;5073210;28;20082;-79
2023/09/10 11:05:06;;;;;;;0.00;0.00;;;;;;;;;;5074517;28;20021;-79
2023/09/10 11:07:32;;;;;;;0.00;0.00;;;;;;;;;;5073353;28;20024;-81
2023/09/10 11:10:28;;;;;;;0.00;0.00;;;;;;;;;;5073968;28;20032;-80
2023/09/10 11:13:13;;;;;;;0.00;0.00;;;;;;;;;;5074535;28;20107;-80
2023/09/10 11:16:03;;;;;;;0.00;0.00;;;;;;;;;;5074548;28;20462;-81
2023/09/10 11:18:34;;;;;;;0.00;0.00;;;;;;;;;;5078165;28;20028;-81
2023/09/10 11:21:02;;;;;;;0.00;0.00;;;;;;;;;;5078187;28;20457;-80
2023/09/10 11:23:28;;;;;;;0.00;0.00;;;;;;;;;;5077738;28;20059;-81
2023/09/10 11:26:13;;;;;;;0.00;0.00;;;;;;;;;;5077949;28;20091;-80
2023/09/10 11:28:50;;;;;;;0.00;0.00;;;;;;;;;;5077681;28;20374;-80
2023/09/10 11:31:45;;;;;;;0.00;0.00;;;;;;;;;;5076567;28;20054;-81
2023/09/10 11:34:23;;;;;;;0.00;0.00;;;;;;;;;;5078100;28;20510;-81
2023/09/10 11:36:50;;;;;;;0.00;0.00;;;;;;;;;;5080053;28;20028;-80
2023/09/10 11:39:16;;;;;;;0.00;0.00;;;;;;;;;;5077475;28;20032;-80
2023/09/10 11:41:46;;;;;;;0.00;0.00;;;;;;;;;;5078070;28;20040;-81
2023/09/10 11:44:12;;;;;;;0.00;0.00;;;;;;;;;;5076821;28;20086;-81
2023/09/10 11:46:37;;;;;;;0.00;0.00;;;;;;;;;;5077737;28;20041;-80
2023/09/10 11:49:03;;;;;;;0.00;0.00;;;;;;;;;;5076599;28;20111;-80
2023/09/10 11:51:29;;;;;;;0.00;0.00;;;;;;;;;;5077389;28;20137;-80
2023/09/10 11:53:54;;;;;;;0.00;0.00;;;;;;;;;;5077689;28;20028;-81
2023/09/10 11:56:20;;;;;;;0.00;0.00;;;;;;;;;;5076371;28;20047;-80
2023/09/10 11:58:45;;;;;;;0.00;0.00;;;;;;;;;;5076352;28;20426;-80
2023/09/10 12:01:11;;;;;;;0.00;0.00;;;;;;;;;;5077940;28;20044;-80
2023/09/10 12:03:39;;;;;;;0.15;0.00;;;;;;;;;;5075908;28;20457;-81
2023/09/10 12:06:04;;;;;;;0.00;0.00;;;;;;;;;;5075800;28;20128;-80
2023/09/10 12:08:29;;;;;;;0.00;0.00;;;;;;;;;;5077469;28;20115;-80
2023/09/10 12:10:58;;;;;;;0.00;0.00;;;;;;;;;;5077058;28;20064;-80
2023/09/10 12:13:24;;;;;;;0.00;0.00;;;;;;;;;;5077143;28;20393;-80
2023/09/10 12:15:49;;;;;;;0.00;0.00;;;;;;;;;;5076069;28;20040;-80
2023/09/10 12:18:15;;;;;;;0.00;0.00;;;;;;;;;;5076011;28;20453;-81
2023/09/10 12:20:40;;;;;;;0.00;0.00;;;;;;;;;;5084313;28;20017;-80
2023/09/10 12:23:06;;;;;;;0.00;0.00;;;;;;;;;;5076570;28;20075;-80
2023/09/10 12:25:31;;;;;;;0.00;0.00;;;;;;;;;;5077032;28;20071;-81
2023/09/10 12:27:57;;;;;;;0.00;0.00;;;;;;;;;;5074923;28;20040;-81
2023/09/10 12:30:23;;;;;;;0.00;0.00;;;;;;;;;;5075387;28;20044;-80
2023/09/10 12:32:49;;;;;;;0.00;0.00;;;;;;;;;;5058879;28;20032;-80
2023/09/10 12:35:14;;;;;;;0.00;0.00;;;;;;;;;;5058641;28;20029;-80
2023/09/10 12:37:50;;;;;;;0.00;0.00;;;;;;;;;;5075719;28;20032;-80
2023/09/10 12:40:15;;;;;;;0.00;0.00;;;;;;;;;;5058879;28;20024;-80
2023/09/10 12:42:43;;;;;;;0.03;0.00;;;;;;;;;;5075177;28;20044;-80
2023/09/10 12:45:09;;;;;;;0.00;0.00;;;;;;;;;;5076731;28;20040;-80
2023/09/10 12:47:35;;;;;;;0.00;0.00;;;;;;;;;;5041997;28;20033;-80
2023/09/10 12:50:00;;;;;;;0.10;0.00;;;;;;;;;;5058630;28;20039;-80
2023/09/10 12:52:26;;;;;;;0.00;0.00;;;;;;;;;;5075277;28;20466;-80
2023/09/10 12:54:51;;;;;;;0.00;0.00;;;;;;;;;;5076384;28;20442;-80
2023/09/10 12:57:17;;;;;;;0.00;0.00;;;;;;;;;;5058482;28;20032;-80
2023/09/10 12:59:42;;;;;;;0.00;0.00;;;;;;;;;;5076433;28;20047;-81
2023/09/10 13:02:11;;;;;;;0.00;0.00;;;;;;;;;;5076330;28;20033;-79
2023/09/10 13:04:36;;;;;;;0.00;0.00;;;;;;;;;;5074932;28;20111;-81
2023/09/10 13:07:02;;;;;;;0.00;0.00;;;;;;;;;;5076595;28;20125;-80
2023/09/10 13:09:28;;;;;;;0.00;0.00;;;;;;;;;;5074834;28;20026;-80
2023/09/10 13:11:53;;;;;;;0.00;0.00;;;;;;;;;;5074709;28;20492;-80
2023/09/10 13:14:19;;;;;;;0.00;0.00;;;;;;;;;;5075836;28;20029;-80
2023/09/10 13:16:44;;;;;;;0.00;0.00;;;;;;;;;;5075925;28;20032;-80
2023/09/10 13:19:10;;;;;;;0.00;0.00;;;;;;;;;;5075666;28;20028;-81
2023/09/10 13:21:35;;;;;;;0.00;0.00;;;;;;;;;;5076015;28;20036;-80
2023/09/10 13:24:01;;;;;;;0.00;0.00;;;;;;;;;;5075953;28;20036;-80
2023/09/10 13:26:26;;;;;;;0.00;0.00;;;;;;;;;;5082110;28;20028;-80
2023/09/10 13:28:52;;;;;;;0.00;0.00;;;;;;;;;;5075939;28;20070;-80
2023/09/10 13:31:18;;;;;;;0.00;0.00;;;;;;;;;;5075732;28;20483;-81
2023/09/10 13:33:43;;;;;;;0.00;0.00;;;;;;;;;;5073947;28;20082;-81
2023/09/10 13:36:10;;;;;;;0.00;0.00;;;;;;;;;;5074858;28;20021;-79
2023/09/10 13:38:35;;;;;;;0.00;0.00;;;;;;;;;;5074420;28;20060;-81
2023/09/10 13:41:01;;;;;;;0.00;0.00;;;;;;;;;;5075558;28;20071;-80
2023/09/10 13:43:26;;;;;;;0.00;0.00;;;;;;;;;;5057685;28;20024;-81
2023/09/10 13:45:52;;;;;;;0.00;0.00;;;;;;;;;;5073928;28;20044;-81
2023/09/10 13:48:17;;;;;;;0.00;0.00;;;;;;;;;;5074152;28;20169;-80
2023/09/10 13:50:42;;;;;;;0.00;0.00;;;;;;;;;;5075628;28;20040;-79
2023/09/10 13:53:08;;;;;;;0.00;0.00;;;;;;;;;;5074268;28;20040;-80
2023/09/10 13:55:33;;;;;;;0.00;0.00;;;;;;;;;;5075627;28;20033;-81
2023/09/10 13:57:59;;;;;;;0.00;0.00;;;;;;;;;;5074960;28;20032;-81
2023/09/10 14:00:24;;;;;;;0.00;0.00;;;;;;;;;;5056961;28;20461;-80
2023/09/10 14:02:49;;;;;;;0.00;0.00;;;;;;;;;;5057207;28;20462;-80
2023/09/10 14:05:15;;;;;;;0.00;0.00;;;;;;;;;;5073929;28;20039;-81
2023/09/10 14:07:41;;;;;;;0.00;0.00;;;;;;;;;;5073940;28;20036;-80
2023/09/10 14:10:07;;;;;;;0.00;0.00;;;;;;;;;;5074834;28;20052;-80
2023/09/10 14:12:32;;;;;;;0.00;0.00;;;;;;;;;;5088081;28;20036;-80
2023/09/10 14:14:58;;;;;;;0.00;0.00;;;;;;;;;;5074853;28;20028;-81
2023/09/10 14:17:24;;;;;;;0.00;0.00;;;;;;;;;;5074446;28;20031;-81
2023/09/10 14:19:50;;;;;;;0.00;0.00;;;;;;;;;;5075030;28;20029;-80
2023/09/10 14:22:15;;;;;;;0.00;0.00;;;;;;;;;;5074891;28;20434;-82
2023/09/10 14:24:41;;;;;;;0.00;0.00;;;;;;;;;;5074483;28;20033;-80
2023/09/10 14:27:06;;;;;;;0.00;0.00;;;;;;;;;;5074557;28;20033;-80
2023/09/10 14:29:35;;;;;;;0.00;0.00;;;;;;;;;;5074162;28;20455;-79
2023/09/10 14:32:01;;;;;;;0.00;0.00;;;;;;;;;;5073893;28;20143;-81
2023/09/10 14:34:26;;;;;;;0.38;0.00;;;;;;;;;;5074459;28;20453;-80
2023/09/10 14:36:51;;;;;;;0.00;0.00;;;;;;;;;;5074817;28;20029;-80
2023/09/10 14:39:17;;;;;;;0.00;0.00;;;;;;;;;;5072748;28;20128;-81